createdAt,value
2017-12-02T00:00:43.475Z,1.98
2017-12-02T00:01:43.451Z,1.92
2017-12-02T00:02:43.420Z,1.97
2017-12-02T00:03:43.403Z,1.95
2017-12-02T00:04:43.368Z,1.97
2017-12-02T00:05:43.361Z,1.97
2017-12-02T00:06:43.322Z,1.84
2017-12-02T00:07:43.297Z,1.89
2017-12-02T00:08:43.267Z,1.95
2017-12-02T00:09:43.244Z,1.95
2017-12-02T00:10:43.223Z,2.01
2017-12-02T00:11:43.202Z,2.01
2017-12-02T00:12:43.175Z,1.97
2017-12-02T00:13:43.144Z,2.00
2017-12-02T00:14:43.122Z,1.89
2017-12-02T00:15:43.110Z,1.93
2017-12-02T00:16:43.072Z,1.88
2017-12-02T00:17:43.045Z,1.84
2017-12-02T00:18:43.021Z,1.89
2017-12-02T00:19:42.997Z,1.95
2017-12-02T00:20:42.971Z,1.92
2017-12-02T00:21:42.946Z,1.86
2017-12-02T00:22:42.920Z,1.86
2017-12-02T00:23:42.892Z,1.93
2017-12-02T00:24:42.874Z,1.97
2017-12-02T00:25:42.855Z,1.95
2017-12-02T00:26:42.819Z,1.79
2017-12-02T00:27:42.795Z,1.93
2017-12-02T00:28:42.769Z,1.88
2017-12-02T00:29:42.753Z,1.81
2017-12-02T00:30:42.738Z,1.84
2017-12-02T00:31:42.703Z,1.76
2017-12-02T00:32:42.682Z,1.85
2017-12-02T00:33:42.657Z,1.88
2017-12-02T00:34:42.620Z,1.93
2017-12-02T00:35:42.626Z,1.92
2017-12-02T00:36:42.572Z,1.95
2017-12-02T00:37:42.549Z,1.97
2017-12-02T00:38:42.534Z,1.98
2017-12-02T00:39:42.515Z,2.00
2017-12-02T00:40:42.472Z,1.97
2017-12-02T00:41:42.452Z,1.95
2017-12-02T00:42:42.416Z,2.00
2017-12-02T00:43:42.403Z,1.97
2017-12-02T00:44:42.370Z,1.93
2017-12-02T00:45:42.415Z,1.88
2017-12-02T00:46:42.319Z,1.93
2017-12-02T00:47:42.297Z,1.93
2017-12-02T00:48:42.268Z,1.93
2017-12-02T00:49:42.254Z,1.98
2017-12-02T00:50:42.232Z,1.92
2017-12-02T00:51:42.194Z,1.97
2017-12-02T00:52:42.171Z,1.93
2017-12-02T00:53:42.161Z,1.86
2017-12-02T00:54:42.118Z,1.79
2017-12-02T00:55:42.097Z,1.81
2017-12-02T00:56:42.069Z,1.78
2017-12-02T00:57:42.053Z,1.86
2017-12-02T00:58:42.020Z,1.86
2017-12-02T00:59:41.997Z,1.89
2017-12-02T01:00:41.967Z,1.79
2017-12-02T01:01:41.952Z,1.85
2017-12-02T01:02:41.934Z,1.81
2017-12-02T01:03:41.893Z,1.78
2017-12-02T01:04:41.870Z,1.75
2017-12-02T01:05:41.845Z,1.75
2017-12-02T01:06:41.820Z,1.76
2017-12-02T01:07:41.794Z,1.85
2017-12-02T01:08:41.774Z,1.93
2017-12-02T01:09:41.745Z,1.88
2017-12-02T01:10:41.717Z,1.97
2017-12-02T01:11:41.699Z,2.03
2017-12-02T01:12:41.665Z,2.00
2017-12-02T01:13:41.645Z,1.97
2017-12-02T01:14:41.864Z,2.01
2017-12-02T01:15:41.592Z,1.93
2017-12-02T01:16:41.567Z,1.89
2017-12-02T01:17:41.542Z,1.98
2017-12-02T01:18:41.516Z,2.04
2017-12-02T01:19:41.493Z,1.97
2017-12-02T01:20:41.476Z,2.03
2017-12-02T01:21:41.442Z,2.08
2017-12-02T01:22:41.425Z,2.07
2017-12-02T01:23:41.394Z,2.12
2017-12-02T01:24:41.390Z,2.12
2017-12-02T01:25:41.340Z,2.19
2017-12-02T01:26:41.325Z,2.22
2017-12-02T01:27:41.301Z,2.28
2017-12-02T01:28:41.280Z,2.19
2017-12-02T01:29:41.244Z,2.22
2017-12-02T01:30:41.217Z,2.18
2017-12-02T01:31:41.194Z,2.18
2017-12-02T01:32:41.171Z,2.23
2017-12-02T01:33:41.151Z,2.25
2017-12-02T01:34:41.125Z,2.16
2017-12-02T01:35:41.093Z,2.22
2017-12-02T01:36:41.070Z,2.34
2017-12-02T01:37:41.041Z,2.23
2017-12-02T01:38:41.019Z,2.34
2017-12-02T01:39:40.991Z,2.25
2017-12-02T01:40:40.986Z,2.32
2017-12-02T01:41:40.944Z,2.25
2017-12-02T01:42:40.918Z,2.26
2017-12-02T01:43:40.895Z,2.16
2017-12-02T01:44:40.947Z,2.18
2017-12-02T01:45:40.843Z,2.15
2017-12-02T01:46:40.819Z,2.16
2017-12-02T01:47:40.797Z,2.15
2017-12-02T01:48:40.768Z,2.18
2017-12-02T01:49:40.746Z,2.16
2017-12-02T01:50:40.727Z,2.16
2017-12-02T01:51:40.715Z,2.21
2017-12-02T01:52:40.678Z,2.28
2017-12-02T01:53:40.650Z,2.23
2017-12-02T01:54:40.618Z,2.10
2017-12-02T01:55:40.596Z,2.21
2017-12-02T01:56:40.571Z,2.15
2017-12-02T01:57:40.546Z,2.14
2017-12-02T01:58:40.519Z,2.15
2017-12-02T01:59:40.496Z,2.00
2017-12-02T02:00:40.471Z,1.98
2017-12-02T02:01:40.446Z,1.85
2017-12-02T02:02:40.428Z,1.85
2017-12-02T02:03:40.394Z,1.84
2017-12-02T02:04:40.370Z,1.71
2017-12-02T02:05:40.353Z,1.70
2017-12-02T02:06:40.320Z,1.82
2017-12-02T02:07:40.297Z,1.84
2017-12-02T02:08:40.285Z,1.89
2017-12-02T02:09:40.255Z,1.98
2017-12-02T02:10:40.227Z,2.03
2017-12-02T02:11:40.202Z,2.05
2017-12-02T02:12:40.178Z,2.14
2017-12-02T02:13:40.146Z,2.12
2017-12-02T02:14:40.125Z,2.15
2017-12-02T02:15:40.096Z,2.15
2017-12-02T02:16:40.073Z,2.04
2017-12-02T02:17:40.048Z,2.16
2017-12-02T02:18:40.042Z,2.25
2017-12-02T02:19:39.999Z,2.28
2017-12-02T02:20:39.973Z,2.28
2017-12-02T02:21:39.961Z,2.39
2017-12-02T02:22:39.922Z,2.23
2017-12-02T02:23:39.896Z,2.25
2017-12-02T02:24:39.876Z,2.14
2017-12-02T02:25:39.854Z,2.15
2017-12-02T02:26:39.825Z,2.19
2017-12-02T02:27:39.802Z,2.26
2017-12-02T02:28:39.783Z,2.30
2017-12-02T02:29:39.804Z,2.25
2017-12-02T02:30:39.732Z,2.28
2017-12-02T02:31:39.704Z,2.23
2017-12-02T02:32:39.675Z,2.22
2017-12-02T02:33:39.655Z,2.14
2017-12-02T02:34:39.625Z,2.28
2017-12-02T02:35:39.619Z,2.28
2017-12-02T02:36:39.587Z,2.18
2017-12-02T02:37:39.554Z,2.18
2017-12-02T02:38:39.529Z,2.19
2017-12-02T02:39:39.605Z,2.18
2017-12-02T02:40:39.482Z,2.15
2017-12-02T02:41:39.453Z,2.10
2017-12-02T02:42:39.430Z,2.04
2017-12-02T02:43:39.405Z,1.98
2017-12-02T02:44:39.385Z,1.97
2017-12-02T02:45:39.360Z,2.08
2017-12-02T02:46:39.332Z,2.04
2017-12-02T02:47:39.304Z,2.08
2017-12-02T02:48:39.282Z,2.12
2017-12-02T02:49:39.389Z,2.04
2017-12-02T02:50:39.231Z,2.00
2017-12-02T02:51:39.251Z,2.01
2017-12-02T02:52:39.179Z,2.00
2017-12-02T02:53:39.156Z,2.01
2017-12-02T02:54:39.132Z,2.04
2017-12-02T02:55:39.108Z,2.03
2017-12-02T02:56:39.080Z,2.03
2017-12-02T02:57:39.058Z,2.15
2017-12-02T02:58:39.029Z,2.15
2017-12-02T02:59:39.007Z,2.18
2017-12-02T03:00:38.978Z,2.14
2017-12-02T03:01:38.957Z,2.18
2017-12-02T03:02:38.928Z,2.04
2017-12-02T03:03:38.906Z,2.01
2017-12-02T03:04:38.881Z,2.03
2017-12-02T03:05:38.856Z,2.00
2017-12-02T03:06:38.830Z,2.14
2017-12-02T03:07:38.814Z,2.14
2017-12-02T03:08:38.780Z,2.18
2017-12-02T03:09:38.755Z,2.26
2017-12-02T03:10:38.734Z,2.26
2017-12-02T03:11:38.711Z,2.18
2017-12-02T03:12:38.685Z,2.07
2017-12-02T03:13:38.660Z,2.12
2017-12-02T03:14:38.630Z,2.08
2017-12-02T03:15:38.606Z,2.18
2017-12-02T03:16:38.585Z,2.19
2017-12-02T03:17:38.556Z,2.19
2017-12-02T03:18:38.549Z,2.10
2017-12-02T03:19:38.507Z,2.16
2017-12-02T03:20:38.483Z,2.16
2017-12-02T03:21:38.457Z,2.01
2017-12-02T03:22:38.434Z,2.03
2017-12-02T03:23:38.408Z,2.04
2017-12-02T03:24:38.382Z,2.10
2017-12-02T03:25:38.369Z,2.01
2017-12-02T03:26:38.333Z,2.08
2017-12-02T03:27:38.313Z,1.98
2017-12-02T03:28:38.287Z,1.85
2017-12-02T03:29:38.261Z,1.74
2017-12-02T03:30:38.289Z,1.70
2017-12-02T03:31:38.217Z,1.68
2017-12-02T03:32:38.184Z,1.68
2017-12-02T03:33:38.167Z,1.71
2017-12-02T03:34:38.185Z,1.67
2017-12-02T03:35:38.116Z,1.68
2017-12-02T03:36:38.116Z,1.76
2017-12-02T03:37:38.064Z,1.81
2017-12-02T03:38:38.033Z,1.63
2017-12-02T03:39:38.013Z,1.68
2017-12-02T03:40:38.093Z,1.63
2017-12-02T03:41:37.961Z,1.56
2017-12-02T03:42:37.933Z,1.53
2017-12-02T03:43:37.919Z,1.46
2017-12-02T03:44:37.896Z,1.40
2017-12-02T03:45:37.860Z,1.30
2017-12-02T03:46:37.893Z,1.28
2017-12-02T03:47:37.810Z,1.31
2017-12-02T03:48:37.782Z,1.32
2017-12-02T03:49:37.762Z,1.53
2017-12-02T03:50:37.843Z,1.60
2017-12-02T03:51:37.706Z,1.53
2017-12-02T03:52:37.681Z,1.56
2017-12-02T03:53:37.659Z,1.52
2017-12-02T03:54:37.632Z,1.61
2017-12-02T03:55:37.608Z,1.56
2017-12-02T03:56:37.580Z,1.60
2017-12-02T03:57:37.558Z,1.71
2017-12-02T03:58:37.531Z,1.67
2017-12-02T03:59:37.511Z,1.67
2017-12-02T04:00:37.481Z,1.81
2017-12-02T04:01:37.462Z,1.81
2017-12-02T04:02:37.428Z,1.84
2017-12-02T04:03:37.407Z,1.86
2017-12-02T04:04:37.380Z,1.93
2017-12-02T04:05:37.358Z,1.89
2017-12-02T04:06:37.328Z,1.86
2017-12-02T04:07:37.307Z,1.84
2017-12-02T04:08:37.280Z,1.84
2017-12-02T04:09:37.257Z,1.93
2017-12-02T04:10:37.239Z,1.98
2017-12-02T04:11:37.206Z,1.92
2017-12-02T04:12:37.179Z,2.05
2017-12-02T04:13:37.155Z,2.12
2017-12-02T04:14:37.127Z,2.16
2017-12-02T04:15:37.105Z,1.98
2017-12-02T04:16:37.079Z,2.18
2017-12-02T04:17:37.056Z,2.05
2017-12-02T04:18:37.031Z,1.98
2017-12-02T04:19:37.026Z,2.04
2017-12-02T04:20:36.981Z,2.04
2017-12-02T04:21:36.955Z,2.03
2017-12-02T04:22:36.930Z,2.01
2017-12-02T04:23:36.906Z,2.00
2017-12-02T04:24:36.879Z,1.95
2017-12-02T04:25:36.856Z,1.86
2017-12-02T04:26:36.870Z,1.93
2017-12-02T04:27:36.804Z,1.82
2017-12-02T04:28:36.780Z,1.84
2017-12-02T04:29:36.756Z,1.82
2017-12-02T04:30:36.728Z,1.86
2017-12-02T04:31:36.717Z,1.88
2017-12-02T04:32:36.681Z,1.88
2017-12-02T04:33:36.655Z,1.88
2017-12-02T04:34:36.627Z,1.95
2017-12-02T04:35:36.662Z,1.95
2017-12-02T04:36:36.578Z,2.00
2017-12-02T04:37:36.554Z,1.97
2017-12-02T04:38:36.526Z,2.08
2017-12-02T04:39:36.502Z,1.98
2017-12-02T04:40:36.476Z,2.08
2017-12-02T04:41:36.546Z,2.12
2017-12-02T04:42:36.426Z,2.08
2017-12-02T04:43:36.401Z,2.10
2017-12-02T04:44:36.389Z,2.12
2017-12-02T04:45:36.371Z,2.15
2017-12-02T04:46:36.326Z,2.12
2017-12-02T04:47:36.303Z,2.14
2017-12-02T04:48:36.279Z,2.12
2017-12-02T04:49:36.252Z,2.07
2017-12-02T04:50:36.231Z,2.01
2017-12-02T04:51:36.202Z,2.01
2017-12-02T04:52:36.178Z,2.08
2017-12-02T04:53:36.159Z,2.10
2017-12-02T04:54:36.129Z,2.08
2017-12-02T04:55:36.103Z,2.03
2017-12-02T04:56:36.080Z,2.10
2017-12-02T04:57:36.051Z,2.03
2017-12-02T04:58:36.030Z,1.97
2017-12-02T04:59:36.000Z,2.01
2017-12-02T05:00:35.999Z,1.98
2017-12-02T05:01:35.962Z,1.95
2017-12-02T05:02:35.932Z,1.97
2017-12-02T05:03:35.909Z,1.93
2017-12-02T05:04:35.878Z,1.93
2017-12-02T05:05:35.855Z,1.92
2017-12-02T05:06:35.827Z,1.98
2017-12-02T05:07:35.810Z,1.93
2017-12-02T05:08:35.786Z,1.97
2017-12-02T05:09:35.758Z,2.03
2017-12-02T05:10:35.726Z,2.10
2017-12-02T05:11:35.705Z,2.14
2017-12-02T05:12:35.677Z,2.10
2017-12-02T05:13:35.653Z,2.12
2017-12-02T05:14:35.627Z,2.15
2017-12-02T05:15:35.619Z,2.14
2017-12-02T05:16:35.589Z,2.01
2017-12-02T05:17:35.551Z,2.04
2017-12-02T05:18:35.526Z,2.00
2017-12-02T05:19:35.510Z,1.93
2017-12-02T05:20:35.477Z,1.98
2017-12-02T05:21:35.456Z,2.04
2017-12-02T05:22:35.429Z,2.10
2017-12-02T05:23:35.404Z,2.18
2017-12-02T05:24:35.384Z,2.18
2017-12-02T05:25:35.355Z,2.18
2017-12-02T05:26:35.349Z,2.16
2017-12-02T05:27:35.314Z,2.08
2017-12-02T05:28:35.275Z,2.15
2017-12-02T05:29:35.253Z,2.03
2017-12-02T05:30:35.229Z,2.00
2017-12-02T05:31:35.212Z,2.00
2017-12-02T05:32:35.193Z,1.92
2017-12-02T05:33:35.156Z,2.04
2017-12-02T05:34:35.125Z,1.88
2017-12-02T05:35:35.104Z,1.85
2017-12-02T05:36:35.085Z,1.88
2017-12-02T05:37:35.052Z,1.79
2017-12-02T05:38:35.026Z,1.81
2017-12-02T05:39:35.003Z,1.82
2017-12-02T05:40:35.024Z,1.86
2017-12-02T05:41:34.952Z,1.89
2017-12-02T05:42:34.926Z,1.93
2017-12-02T05:43:34.902Z,1.97
2017-12-02T05:44:34.877Z,1.84
2017-12-02T05:45:34.853Z,1.70
2017-12-02T05:46:34.847Z,1.82
2017-12-02T05:47:34.811Z,1.67
2017-12-02T05:48:34.781Z,1.68
2017-12-02T05:49:34.751Z,1.75
2017-12-02T05:50:34.758Z,1.67
2017-12-02T05:51:34.703Z,1.81
2017-12-02T05:52:34.681Z,1.70
2017-12-02T05:53:34.654Z,1.67
2017-12-02T05:54:34.632Z,1.68
2017-12-02T05:55:34.603Z,1.66
2017-12-02T05:56:34.580Z,1.67
2017-12-02T05:57:34.554Z,1.74
2017-12-02T05:58:34.531Z,1.70
2017-12-02T05:59:34.500Z,1.70
2017-12-02T06:00:34.479Z,1.78
2017-12-02T06:01:34.459Z,1.75
2017-12-02T06:02:34.432Z,1.78
2017-12-02T06:03:34.410Z,1.66
2017-12-02T06:04:34.394Z,1.78
2017-12-02T06:05:34.352Z,1.79
2017-12-02T06:06:34.328Z,1.84
2017-12-02T06:07:34.301Z,1.84
2017-12-02T06:08:34.272Z,1.76
2017-12-02T06:09:34.250Z,1.85
2017-12-02T06:10:34.223Z,1.79
2017-12-02T06:11:34.199Z,1.84
2017-12-02T06:12:34.172Z,1.68
2017-12-02T06:13:34.150Z,1.76
2017-12-02T06:14:34.122Z,1.63
2017-12-02T06:15:34.099Z,1.71
2017-12-02T06:16:34.072Z,1.67
2017-12-02T06:17:34.048Z,1.76
2017-12-02T06:18:34.021Z,1.82
2017-12-02T06:19:33.997Z,1.79
2017-12-02T06:20:33.981Z,1.86
2017-12-02T06:21:33.949Z,1.84
2017-12-02T06:22:33.920Z,1.86
2017-12-02T06:23:33.896Z,1.75
2017-12-02T06:24:33.871Z,1.75
2017-12-02T06:25:33.849Z,1.70
2017-12-02T06:26:33.823Z,1.76
2017-12-02T06:27:33.796Z,1.81
2017-12-02T06:28:33.770Z,1.89
2017-12-02T06:29:33.745Z,1.97
2017-12-02T06:30:33.718Z,1.89
2017-12-02T06:31:33.713Z,1.78
2017-12-02T06:32:33.674Z,1.84
2017-12-02T06:33:33.645Z,1.70
2017-12-02T06:34:33.669Z,1.66
2017-12-02T06:35:33.606Z,1.71
2017-12-02T06:36:33.568Z,1.79
2017-12-02T06:37:33.585Z,1.82
2017-12-02T06:38:33.519Z,1.95
2017-12-02T06:39:33.495Z,1.86
2017-12-02T06:40:33.469Z,1.93
2017-12-02T06:41:33.458Z,1.95
2017-12-02T06:42:33.418Z,1.92
2017-12-02T06:43:33.395Z,1.79
2017-12-02T06:44:33.379Z,1.84
2017-12-02T06:45:33.408Z,1.64
2017-12-02T06:46:33.318Z,1.71
2017-12-02T06:47:33.301Z,1.70
2017-12-02T06:48:33.273Z,1.76
2017-12-02T06:49:33.243Z,1.82
2017-12-02T06:50:33.217Z,1.75
2017-12-02T06:51:33.192Z,1.86
2017-12-02T06:52:33.167Z,1.82
2017-12-02T06:53:33.142Z,1.92
2017-12-02T06:54:33.117Z,1.97
2017-12-02T06:55:33.091Z,1.88
2017-12-02T06:56:33.071Z,1.79
2017-12-02T06:57:33.041Z,1.70
2017-12-02T06:58:33.017Z,1.70
2017-12-02T06:59:32.993Z,1.66
2017-12-02T07:00:32.970Z,1.70
2017-12-02T07:01:32.945Z,1.71
2017-12-02T07:02:32.915Z,1.70
2017-12-02T07:03:32.889Z,1.53
2017-12-02T07:04:32.882Z,1.58
2017-12-02T07:05:32.842Z,1.50
2017-12-02T07:06:32.815Z,1.52
2017-12-02T07:07:32.790Z,1.57
2017-12-02T07:08:32.765Z,1.56
2017-12-02T07:09:32.742Z,1.61
2017-12-02T07:10:32.713Z,1.68
2017-12-02T07:11:32.695Z,1.63
2017-12-02T07:12:32.663Z,1.75
2017-12-02T07:13:32.639Z,1.70
2017-12-02T07:14:32.614Z,1.74
2017-12-02T07:15:32.589Z,1.78
2017-12-02T07:16:32.563Z,1.71
2017-12-02T07:17:32.540Z,1.82
2017-12-02T07:18:32.521Z,1.68
2017-12-02T07:19:32.488Z,1.76
2017-12-02T07:20:32.467Z,1.76
2017-12-02T07:21:32.438Z,1.68
2017-12-02T07:22:32.412Z,1.81
2017-12-02T07:23:32.390Z,1.79
2017-12-02T07:24:32.362Z,1.68
2017-12-02T07:25:32.336Z,1.63
2017-12-02T07:26:32.362Z,1.58
2017-12-02T07:27:32.288Z,1.57
2017-12-02T07:28:32.263Z,1.40
2017-12-02T07:29:32.246Z,1.53
2017-12-02T07:30:32.259Z,1.57
2017-12-02T07:31:32.186Z,1.53
2017-12-02T07:32:32.192Z,1.63
2017-12-02T07:33:32.137Z,1.66
2017-12-02T07:34:32.108Z,1.71
2017-12-02T07:35:32.083Z,1.71
2017-12-02T07:36:32.114Z,1.53
2017-12-02T07:37:32.036Z,1.52
2017-12-02T07:38:32.008Z,1.46
2017-12-02T07:39:31.986Z,1.40
2017-12-02T07:40:32.092Z,1.42
2017-12-02T07:41:31.935Z,1.48
2017-12-02T07:42:31.919Z,1.53
2017-12-02T07:43:31.884Z,1.53
2017-12-02T07:44:31.905Z,1.56
2017-12-02T07:45:31.836Z,1.56
2017-12-02T07:46:31.802Z,1.61
2017-12-02T07:47:31.778Z,1.53
2017-12-02T07:48:31.756Z,1.58
2017-12-02T07:49:31.735Z,1.48
2017-12-02T07:50:31.702Z,1.45
2017-12-02T07:51:31.678Z,1.38
2017-12-02T07:52:31.652Z,1.45
2017-12-02T07:53:31.627Z,1.48
2017-12-02T07:54:31.603Z,1.46
2017-12-02T07:55:31.574Z,1.46
2017-12-02T07:56:31.552Z,1.46
2017-12-02T07:57:31.528Z,1.42
2017-12-02T07:58:31.502Z,1.57
2017-12-02T07:59:31.473Z,1.45
2017-12-02T08:00:31.449Z,1.43
2017-12-02T08:01:31.424Z,1.49
2017-12-02T08:02:31.404Z,1.45
2017-12-02T08:03:31.373Z,1.53
2017-12-02T08:04:31.359Z,1.53
2017-12-02T08:05:31.323Z,1.56
2017-12-02T08:06:31.297Z,1.64
2017-12-02T08:07:31.271Z,1.66
2017-12-02T08:08:31.245Z,1.75
2017-12-02T08:09:31.221Z,1.70
2017-12-02T08:10:31.196Z,1.75
2017-12-02T08:11:31.171Z,1.79
2017-12-02T08:12:31.146Z,1.74
2017-12-02T08:13:31.123Z,1.76
2017-12-02T08:14:31.094Z,1.74
2017-12-02T08:15:31.070Z,1.71
2017-12-02T08:16:31.055Z,1.79
2017-12-02T08:17:31.018Z,1.71
2017-12-02T08:18:30.993Z,1.81
2017-12-02T08:19:30.974Z,1.76
2017-12-02T08:20:30.943Z,1.85
2017-12-02T08:21:30.973Z,1.85
2017-12-02T08:22:30.893Z,1.67
2017-12-02T08:23:30.869Z,1.70
2017-12-02T08:24:30.853Z,1.56
2017-12-02T08:25:30.836Z,1.57
2017-12-02T08:26:30.800Z,1.68
2017-12-02T08:27:30.814Z,1.66
2017-12-02T08:28:30.741Z,1.71
2017-12-02T08:29:30.717Z,1.66
2017-12-02T08:30:30.689Z,1.57
2017-12-02T08:31:30.688Z,1.57
2017-12-02T08:32:30.641Z,1.53
2017-12-02T08:33:30.617Z,1.49
2017-12-02T08:34:30.589Z,1.43
2017-12-02T08:35:30.567Z,1.34
2017-12-02T08:36:30.538Z,1.30
2017-12-02T08:37:30.607Z,1.49
2017-12-02T08:38:30.489Z,1.58
2017-12-02T08:39:30.477Z,1.64
2017-12-02T08:40:30.438Z,1.70
2017-12-02T08:41:30.417Z,1.63
2017-12-02T08:42:30.447Z,1.70
2017-12-02T08:43:30.366Z,1.60
2017-12-02T08:44:30.337Z,1.60
2017-12-02T08:45:30.315Z,1.66
2017-12-02T08:46:30.292Z,1.56
2017-12-02T08:47:30.264Z,1.67
2017-12-02T08:48:30.242Z,1.75
2017-12-02T08:49:30.218Z,1.66
2017-12-02T08:50:30.196Z,1.75
2017-12-02T08:51:30.165Z,1.66
2017-12-02T08:52:30.139Z,1.71
2017-12-02T08:53:30.116Z,1.82
2017-12-02T08:54:30.088Z,1.76
2017-12-02T08:55:30.065Z,1.82
2017-12-02T08:56:30.044Z,1.71
2017-12-02T08:57:30.019Z,1.84
2017-12-02T08:58:29.993Z,1.70
2017-12-02T08:59:29.972Z,1.64
2017-12-02T09:00:29.947Z,1.74
2017-12-02T09:01:29.917Z,1.71
2017-12-02T09:02:29.893Z,1.71
2017-12-02T09:03:29.865Z,1.84
2017-12-02T09:04:29.896Z,1.85
2017-12-02T09:05:29.818Z,1.81
2017-12-02T09:06:29.793Z,1.75
2017-12-02T09:07:29.766Z,1.75
2017-12-02T09:08:29.745Z,1.79
2017-12-02T09:09:29.723Z,1.67
2017-12-02T09:10:29.692Z,1.79
2017-12-02T09:11:29.679Z,1.79
2017-12-02T09:12:29.643Z,1.67
2017-12-02T09:13:29.625Z,1.68
2017-12-02T09:14:29.594Z,1.70
2017-12-02T09:15:29.571Z,1.63
2017-12-02T09:16:29.604Z,1.75
2017-12-02T09:17:29.529Z,1.58
2017-12-02T09:18:29.501Z,1.58
2017-12-02T09:19:29.490Z,1.76
2017-12-02T09:20:29.451Z,1.74
2017-12-02T09:21:29.424Z,1.82
2017-12-02T09:22:29.438Z,1.75
2017-12-02T09:23:29.388Z,1.71
2017-12-02T09:24:29.365Z,1.78
2017-12-02T09:25:29.324Z,1.71
2017-12-02T09:26:29.305Z,1.71
2017-12-02T09:27:29.275Z,1.58
2017-12-02T09:28:29.259Z,1.53
2017-12-02T09:29:29.224Z,1.43
2017-12-02T09:30:29.199Z,1.58
2017-12-02T09:31:29.174Z,1.57
2017-12-02T09:32:29.251Z,1.45
2017-12-02T09:33:29.159Z,1.40
2017-12-02T09:34:29.100Z,1.42
2017-12-02T09:35:29.076Z,1.39
2017-12-02T09:36:29.066Z,1.46
2017-12-02T09:37:29.029Z,1.48
2017-12-02T09:38:29.002Z,1.56
2017-12-02T09:39:28.981Z,1.61
2017-12-02T09:40:28.964Z,1.70
2017-12-02T09:41:28.929Z,1.68
2017-12-02T09:42:28.917Z,1.67
2017-12-02T09:43:28.880Z,1.79
2017-12-02T09:44:28.861Z,1.79
2017-12-02T09:45:28.832Z,1.79
2017-12-02T09:46:28.807Z,1.84
2017-12-02T09:47:28.789Z,1.66
2017-12-02T09:48:28.759Z,1.52
2017-12-02T09:49:28.748Z,1.67
2017-12-02T09:50:28.710Z,1.60
2017-12-02T09:51:28.687Z,1.71
2017-12-02T09:52:28.662Z,1.68
2017-12-02T09:53:28.644Z,1.63
2017-12-02T09:54:28.643Z,1.45
2017-12-02T09:55:28.588Z,1.53
2017-12-02T09:56:28.560Z,1.50
2017-12-02T09:57:28.544Z,1.56
2017-12-02T09:58:28.521Z,1.52
2017-12-02T09:59:28.487Z,1.46
2017-12-02T10:00:28.464Z,1.58
2017-12-02T10:01:28.445Z,1.53
2017-12-02T10:02:28.413Z,1.57
2017-12-02T10:03:28.390Z,1.46
2017-12-02T10:04:28.373Z,1.42
2017-12-02T10:05:28.343Z,1.38
2017-12-02T10:06:28.314Z,1.56
2017-12-02T10:07:28.293Z,1.68
2017-12-02T10:08:28.266Z,1.64
2017-12-02T10:09:28.243Z,1.81
2017-12-02T10:10:28.216Z,1.78
2017-12-02T10:11:28.198Z,1.81
2017-12-02T10:12:28.171Z,1.70
2017-12-02T10:13:28.152Z,1.67
2017-12-02T10:14:28.117Z,1.78
2017-12-02T10:15:28.102Z,1.79
2017-12-02T10:16:28.071Z,1.79
2017-12-02T10:17:28.051Z,1.82
2017-12-02T10:18:28.026Z,1.76
2017-12-02T10:19:27.995Z,1.76
2017-12-02T10:20:27.971Z,1.74
2017-12-02T10:21:28.002Z,1.82
2017-12-02T10:22:27.940Z,1.79
2017-12-02T10:23:27.897Z,1.85
2017-12-02T10:24:27.896Z,1.82
2017-12-02T10:25:27.853Z,1.79
2017-12-02T10:26:27.824Z,1.81
2017-12-02T10:27:27.818Z,1.70
2017-12-02T10:28:27.776Z,1.50
2017-12-02T10:29:27.749Z,1.48
2017-12-02T10:30:27.738Z,1.40
2017-12-02T10:31:27.809Z,1.46
2017-12-02T10:32:27.684Z,1.43
2017-12-02T10:33:27.690Z,1.40
2017-12-02T10:34:27.632Z,1.46
2017-12-02T10:35:27.607Z,1.46
2017-12-02T10:36:27.583Z,1.57
2017-12-02T10:37:27.690Z,1.58
2017-12-02T10:38:27.534Z,1.67
2017-12-02T10:39:27.512Z,1.67
2017-12-02T10:40:27.487Z,1.70
2017-12-02T10:41:27.473Z,1.70
2017-12-02T10:42:27.442Z,1.81
2017-12-02T10:43:27.414Z,1.78
2017-12-02T10:44:27.389Z,1.70
2017-12-02T10:45:27.359Z,1.74
2017-12-02T10:46:27.339Z,1.71
2017-12-02T10:47:27.311Z,1.85
2017-12-02T10:48:27.290Z,1.82
2017-12-02T10:49:27.264Z,1.71
2017-12-02T10:50:27.238Z,1.81
2017-12-02T10:51:27.214Z,1.82
2017-12-02T10:52:27.188Z,1.82
2017-12-02T10:53:27.168Z,1.92
2017-12-02T10:54:27.145Z,1.82
2017-12-02T10:55:27.126Z,1.84
2017-12-02T10:56:27.095Z,1.92
2017-12-02T10:57:27.069Z,1.92
2017-12-02T10:58:27.062Z,1.97
2017-12-02T10:59:27.021Z,1.81
2017-12-02T11:00:26.996Z,1.89
2017-12-02T11:01:26.973Z,1.56
2017-12-02T11:02:26.954Z,1.58
2017-12-02T11:03:26.925Z,1.75
2017-12-02T11:04:26.898Z,1.81
2017-12-02T11:05:26.876Z,1.81
2017-12-02T11:06:26.871Z,1.92
2017-12-02T11:07:26.828Z,1.82
2017-12-02T11:08:26.806Z,1.88
2017-12-02T11:09:26.798Z,1.97
2017-12-02T11:10:26.756Z,1.84
2017-12-02T11:11:26.737Z,1.84
2017-12-02T11:12:26.704Z,1.85
2017-12-02T11:13:26.684Z,1.75
2017-12-02T11:14:26.657Z,1.82
2017-12-02T11:15:26.632Z,1.79
2017-12-02T11:16:26.608Z,1.82
2017-12-02T11:17:26.594Z,1.81
2017-12-02T11:18:26.557Z,1.79
2017-12-02T11:19:26.543Z,1.71
2017-12-02T11:20:26.512Z,1.63
2017-12-02T11:21:26.490Z,1.76
2017-12-02T11:22:26.763Z,1.71
2017-12-02T11:23:26.446Z,1.79
2017-12-02T11:24:26.414Z,1.71
2017-12-02T11:25:26.400Z,1.79
2017-12-02T11:26:26.381Z,1.85
2017-12-02T11:27:26.345Z,1.92
2017-12-02T11:28:26.327Z,2.00
2017-12-02T11:29:26.295Z,2.00
2017-12-02T11:30:26.272Z,2.15
2017-12-02T11:31:26.244Z,2.14
2017-12-02T11:32:26.350Z,2.05
2017-12-02T11:33:26.200Z,1.88
2017-12-02T11:34:26.196Z,1.82
2017-12-02T11:35:26.163Z,1.75
2017-12-02T11:36:26.177Z,1.68
2017-12-02T11:37:26.102Z,1.63
2017-12-02T11:38:26.087Z,1.63
2017-12-02T11:39:26.061Z,1.67
2017-12-02T11:40:26.030Z,1.58
2017-12-02T11:41:26.007Z,1.71
2017-12-02T11:42:26.004Z,1.79
2017-12-02T11:43:25.960Z,1.79
2017-12-02T11:44:25.943Z,1.82
2017-12-02T11:45:25.913Z,1.81
2017-12-02T11:46:25.888Z,1.84
2017-12-02T11:47:25.862Z,1.75
2017-12-02T11:48:25.872Z,1.74
2017-12-02T11:49:25.813Z,1.86
2017-12-02T11:50:25.789Z,1.86
2017-12-02T11:51:25.764Z,1.93
2017-12-02T11:52:25.743Z,1.97
2017-12-02T11:53:25.732Z,1.86
2017-12-02T11:54:25.690Z,1.68
2017-12-02T11:55:25.669Z,1.81
2017-12-02T11:56:25.663Z,1.76
2017-12-02T11:57:25.625Z,1.76
2017-12-02T11:58:25.606Z,1.76
2017-12-02T11:59:25.577Z,1.79
2017-12-02T12:00:25.547Z,1.79
2017-12-02T12:01:25.529Z,1.93
2017-12-02T12:02:25.496Z,1.82
2017-12-02T12:03:25.472Z,1.75
2017-12-02T12:04:25.456Z,1.84
2017-12-02T12:05:25.426Z,1.98
2017-12-02T12:06:25.403Z,2.19
2017-12-02T12:07:25.378Z,2.19
2017-12-02T12:08:25.365Z,2.10
2017-12-02T12:09:25.336Z,2.01
2017-12-02T12:10:25.313Z,1.82
2017-12-02T12:11:25.280Z,1.93
2017-12-02T12:12:25.264Z,1.84
2017-12-02T12:13:25.238Z,1.92
2017-12-02T12:14:25.207Z,1.98
2017-12-02T12:15:25.185Z,2.00
2017-12-02T12:16:25.164Z,1.93
2017-12-02T12:17:25.138Z,1.89
2017-12-02T12:18:25.144Z,2.00
2017-12-02T12:19:25.096Z,1.88
2017-12-02T12:20:25.065Z,2.00
2017-12-02T12:21:25.047Z,2.05
2017-12-02T12:22:25.020Z,2.15
2017-12-02T12:23:25.004Z,2.03
2017-12-02T12:24:24.976Z,1.97
2017-12-02T12:25:24.951Z,1.97
2017-12-02T12:26:24.919Z,1.93
2017-12-02T12:27:24.899Z,2.07
2017-12-02T12:28:24.880Z,1.98
2017-12-02T12:29:24.855Z,2.00
2017-12-02T12:30:24.825Z,2.00
2017-12-02T12:31:24.801Z,2.03
2017-12-02T12:32:24.777Z,1.81
2017-12-02T12:33:24.769Z,1.82
2017-12-02T12:34:24.734Z,2.00
2017-12-02T12:35:24.709Z,1.92
2017-12-02T12:36:24.686Z,1.85
2017-12-02T12:37:24.674Z,1.84
2017-12-02T12:38:24.633Z,1.82
2017-12-02T12:39:24.612Z,1.81
2017-12-02T12:40:24.584Z,1.66
2017-12-02T12:41:24.574Z,1.56
2017-12-02T12:42:24.535Z,1.60
2017-12-02T12:43:24.589Z,1.71
2017-12-02T12:44:24.485Z,1.81
2017-12-02T12:45:24.462Z,1.70
2017-12-02T12:46:24.440Z,1.86
2017-12-02T12:47:24.439Z,1.81
2017-12-02T12:48:24.392Z,1.89
2017-12-02T12:49:24.464Z,1.98
2017-12-02T12:50:24.343Z,1.89
2017-12-02T12:51:24.325Z,1.97
2017-12-02T12:52:24.300Z,2.00
2017-12-02T12:53:24.278Z,1.81
2017-12-02T12:54:24.251Z,1.70
2017-12-02T12:55:24.223Z,1.79
2017-12-02T12:56:24.205Z,1.64
2017-12-02T12:57:24.177Z,1.64
2017-12-02T12:58:24.405Z,1.78
2017-12-02T12:59:24.123Z,1.84
2017-12-02T13:00:24.112Z,1.70
2017-12-02T13:01:24.084Z,1.70
2017-12-02T13:02:24.059Z,1.84
2017-12-02T13:03:24.028Z,1.66
2017-12-02T13:04:24.004Z,1.74
2017-12-02T13:05:23.988Z,1.79
2017-12-02T13:06:23.958Z,1.71
2017-12-02T13:07:23.929Z,1.86
2017-12-02T13:08:23.907Z,1.81
2017-12-02T13:09:23.883Z,1.81
2017-12-02T13:10:23.877Z,1.79
2017-12-02T13:11:23.844Z,1.86
2017-12-02T13:12:23.815Z,1.79
2017-12-02T13:13:23.787Z,1.75
2017-12-02T13:14:23.768Z,1.89
2017-12-02T13:15:23.759Z,1.85
2017-12-02T13:16:23.717Z,1.85
2017-12-02T13:17:23.688Z,1.88
2017-12-02T13:18:23.671Z,1.93